createdAt,value
2022-09-12T00:01:27.429Z,176.60
2022-09-12T00:03:55.857Z,182.80
2022-09-12T00:06:26.059Z,177.40
2022-09-12T00:08:59.124Z,180.35
2022-09-12T00:11:27.009Z,180.00
2022-09-12T00:14:01.337Z,182.63
2022-09-12T00:16:31.954Z,173.48
2022-09-12T00:18:59.304Z,188.25
2022-09-12T00:21:26.568Z,183.48
2022-09-12T00:23:53.682Z,183.68
2022-09-12T00:26:21.792Z,177.10
2022-09-12T00:28:49.823Z,187.30
2022-09-12T00:31:21.233Z,178.52
2022-09-12T00:33:47.900Z,180.43
2022-09-12T00:36:20.544Z,182.95
2022-09-12T00:38:48.329Z,192.93
2022-09-12T00:41:22.641Z,179.57
2022-09-12T00:43:52.487Z,181.43
2022-09-12T00:46:43.335Z,187.13
2022-09-12T00:49:21.998Z,193.43
2022-09-12T00:51:57.482Z,184.73
2022-09-12T00:54:28.484Z,182.52
2022-09-12T00:57:01.696Z,180.77
2022-09-12T00:59:44.946Z,180.25
2022-09-12T01:02:11.832Z,182.70
2022-09-12T01:04:41.678Z,190.27
2022-09-12T01:07:08.899Z,183.57
2022-09-12T01:09:38.061Z,181.00
2022-09-12T01:12:06.012Z,179.52
2022-09-12T01:14:32.771Z,180.95
2022-09-12T01:16:59.551Z,182.07
2022-09-12T01:19:48.629Z,182.82
2022-09-12T01:22:39.663Z,180.23
2022-09-12T01:25:15.362Z,183.18
2022-09-12T01:28:26.347Z,185.55
2022-09-12T01:31:04.085Z,180.13
2022-09-12T01:33:42.882Z,181.50
2022-09-12T01:36:21.108Z,179.90
2022-09-12T01:38:53.085Z,177.35
2022-09-12T01:41:41.555Z,184.02
2022-09-12T01:44:22.752Z,176.32
2022-09-12T01:47:02.635Z,182.02
2022-09-12T01:49:46.087Z,188.95
2022-09-12T01:52:51.025Z,178.90
2022-09-12T01:55:29.660Z,181.65
2022-09-12T01:58:07.964Z,178.27
2022-09-12T02:00:39.640Z,185.10
2022-09-12T02:03:14.857Z,189.73
2022-09-12T02:05:48.025Z,184.63
2022-09-12T02:08:19.762Z,187.60
2022-09-12T02:10:52.839Z,185.50
2022-09-12T02:13:32.920Z,180.23
2022-09-12T02:16:07.916Z,182.25
2022-09-12T02:18:40.038Z,183.82
2022-09-12T02:21:07.818Z,182.85
2022-09-12T02:23:39.707Z,180.90
2022-09-12T02:26:13.071Z,180.68
2022-09-12T02:28:43.196Z,192.25
2022-09-12T02:31:09.736Z,176.73
2022-09-12T02:34:02.612Z,188.60
2022-09-12T02:36:43.519Z,184.48
2022-09-12T02:39:10.168Z,183.32
2022-09-12T02:41:37.168Z,178.90
2022-09-12T02:44:04.832Z,182.80
2022-09-12T02:46:44.552Z,181.50
2022-09-12T02:49:11.252Z,184.82
2022-09-12T02:51:38.621Z,178.02
2022-09-12T02:54:07.522Z,183.10
2022-09-12T02:56:34.454Z,175.88
2022-09-12T02:59:08.449Z,184.35
2022-09-12T03:01:59.578Z,179.57
2022-09-12T03:04:45.563Z,183.80
2022-09-12T03:07:24.368Z,182.88
2022-09-12T03:10:05.756Z,187.85
2022-09-12T03:12:54.349Z,182.77
2022-09-12T03:15:23.852Z,179.60
2022-09-12T03:18:11.786Z,182.30
2022-09-12T03:20:58.262Z,183.00
2022-09-12T03:23:34.641Z,182.15
2022-09-12T03:26:09.076Z,183.75
2022-09-12T03:28:38.088Z,192.15
2022-09-12T03:31:19.704Z,184.38
2022-09-12T03:33:46.533Z,182.93
2022-09-12T03:36:26.024Z,183.10
2022-09-12T03:38:52.915Z,188.18
2022-09-12T03:41:19.701Z,182.65
2022-09-12T03:43:46.568Z,180.00
2022-09-12T03:46:15.738Z,178.75
2022-09-12T03:48:42.599Z,178.63
2022-09-12T03:51:10.817Z,178.50
2022-09-12T03:53:37.675Z,188.73
2022-09-12T03:56:09.946Z,185.50
2022-09-12T03:58:37.546Z,184.65
2022-09-12T04:01:12.918Z,179.88
2022-09-12T04:03:43.468Z,186.93
2022-09-12T04:06:12.136Z,185.98
2022-09-12T04:08:38.907Z,176.05
2022-09-12T04:11:13.817Z,181.30
2022-09-12T04:13:44.345Z,173.32
2022-09-12T04:16:12.380Z,175.00
2022-09-12T04:18:39.162Z,179.68
2022-09-12T04:21:08.160Z,193.27
2022-09-12T04:23:34.904Z,176.73
2022-09-12T04:26:04.056Z,172.73
2022-09-12T04:28:30.752Z,176.38
2022-09-12T04:31:06.228Z,174.32
2022-09-12T04:33:34.104Z,187.10
2022-09-12T04:36:05.935Z,184.90
2022-09-12T04:38:33.718Z,174.00
2022-09-12T04:41:00.827Z,174.95
2022-09-12T04:43:27.607Z,179.25
2022-09-12T04:45:54.493Z,181.57
2022-09-12T04:48:21.137Z,173.40
2022-09-12T04:50:47.816Z,188.13
2022-09-12T04:53:14.593Z,174.55
2022-09-12T04:55:41.265Z,181.25
2022-09-12T04:58:07.879Z,190.23
2022-09-12T05:00:35.173Z,172.43
2022-09-12T05:03:01.786Z,193.25
2022-09-12T05:05:28.406Z,180.23
2022-09-12T05:07:55.139Z,179.43
2022-09-12T05:10:23.861Z,179.90
2022-09-12T05:12:50.561Z,173.18
2022-09-12T05:15:17.207Z,181.73
2022-09-12T05:17:43.909Z,185.63
2022-09-12T05:20:12.841Z,179.98
2022-09-12T05:22:39.502Z,189.85
2022-09-12T05:25:06.838Z,184.77
2022-09-12T05:27:33.501Z,183.32
2022-09-12T05:30:00.119Z,173.35
2022-09-12T05:32:26.767Z,184.57
2022-09-12T05:34:53.512Z,177.95
2022-09-12T05:37:20.666Z,177.93
2022-09-12T05:39:47.532Z,172.30
2022-09-12T05:42:14.325Z,170.18
2022-09-12T05:44:40.984Z,176.80
2022-09-12T05:47:07.750Z,172.63
2022-09-12T05:49:35.239Z,171.90
2022-09-12T05:52:03.303Z,175.30
2022-09-12T05:54:31.623Z,173.82
2022-09-12T05:56:58.639Z,176.70
2022-09-12T05:59:25.416Z,169.55
2022-09-12T06:01:52.486Z,186.07
2022-09-12T06:04:19.170Z,174.93
2022-09-12T06:06:46.297Z,180.13
2022-09-12T06:09:15.223Z,175.15
2022-09-12T06:11:42.468Z,180.18
2022-09-12T06:14:11.114Z,178.63
2022-09-12T06:16:38.602Z,176.75
2022-09-12T06:19:07.889Z,185.35
2022-09-12T06:21:38.901Z,179.20
2022-09-12T06:24:05.784Z,171.30
2022-09-12T06:26:33.272Z,186.55
2022-09-12T06:29:00.967Z,181.23
2022-09-12T06:31:36.044Z,181.73
2022-09-12T06:34:05.312Z,192.70
2022-09-12T06:36:36.517Z,184.20
2022-09-12T06:39:10.141Z,185.27
2022-09-12T06:41:41.603Z,180.57
2022-09-12T06:44:19.383Z,184.52
2022-09-12T06:46:46.157Z,183.43
2022-09-12T06:49:13.410Z,182.07
2022-09-12T06:51:42.137Z,179.20
2022-09-12T06:54:10.729Z,190.10
2022-09-12T06:56:37.786Z,186.38
2022-09-12T06:59:04.423Z,184.60
2022-09-12T07:01:32.215Z,186.52
2022-09-12T07:04:01.318Z,191.45
2022-09-12T07:06:46.103Z,194.13
2022-09-12T07:09:16.574Z,203.82
2022-09-12T07:11:44.909Z,202.90
2022-09-12T07:14:13.924Z,201.10
2022-09-12T07:16:40.675Z,202.02
2022-09-12T07:19:08.417Z,206.23
2022-09-12T07:21:40.447Z,202.95
2022-09-12T07:24:09.773Z,196.32
2022-09-12T07:26:36.990Z,201.55
2022-09-12T07:29:25.480Z,205.00
2022-09-12T07:31:51.773Z,210.77
2022-09-12T07:34:18.354Z,202.32
2022-09-12T07:36:44.948Z,203.82
2022-09-12T07:39:11.582Z,203.57
2022-09-12T07:41:38.416Z,197.38
2022-09-12T07:44:06.727Z,194.95
2022-09-12T07:46:33.615Z,206.98
2022-09-12T07:49:01.232Z,207.73
2022-09-12T07:51:29.632Z,210.60
2022-09-12T07:53:56.797Z,205.82
2022-09-12T07:56:29.440Z,203.02
2022-09-12T07:58:57.405Z,204.75
2022-09-12T08:01:24.230Z,208.20
2022-09-12T08:03:55.101Z,199.45
2022-09-12T08:06:24.260Z,198.27
2022-09-12T08:08:52.308Z,195.45
2022-09-12T08:11:20.759Z,196.30
2022-09-12T08:13:51.758Z,196.85
2022-09-12T08:16:23.693Z,184.63
2022-09-12T08:18:50.576Z,187.00
2022-09-12T08:21:22.422Z,195.45
2022-09-12T08:23:56.478Z,185.77
2022-09-12T08:26:23.559Z,185.40
2022-09-12T08:28:50.818Z,188.32
2022-09-12T08:31:19.519Z,185.80
2022-09-12T08:33:46.698Z,181.68
2022-09-12T08:36:25.783Z,180.75
2022-09-12T08:38:59.579Z,184.52
2022-09-12T08:41:28.202Z,182.65
2022-09-12T08:44:12.150Z,179.75
2022-09-12T08:47:30.133Z,182.48
2022-09-12T08:50:00.792Z,176.63
2022-09-12T08:52:37.345Z,172.55
2022-09-12T08:55:06.745Z,175.45
2022-09-12T08:57:33.871Z,179.68
2022-09-12T09:00:04.539Z,175.00
2022-09-12T09:02:43.343Z,177.02
2022-09-12T09:05:58.723Z,175.77
2022-09-12T09:08:30.445Z,177.45
2022-09-12T09:11:03.693Z,183.65
2022-09-12T09:14:09.199Z,176.10
2022-09-12T09:16:42.567Z,177.70
2022-09-12T09:19:18.922Z,174.07
2022-09-12T09:21:55.269Z,173.13
2022-09-12T09:24:46.018Z,174.32
2022-09-12T09:27:39.963Z,169.13
2022-09-12T09:30:21.556Z,168.25
2022-09-12T09:32:55.556Z,167.68
2022-09-12T09:35:28.249Z,166.95
2022-09-12T09:38:05.874Z,168.30
2022-09-12T09:41:01.509Z,171.02
2022-09-12T09:43:29.076Z,175.87
2022-09-12T09:45:58.410Z,165.50
2022-09-12T09:48:31.979Z,165.55
2022-09-12T09:51:01.891Z,173.60
2022-09-12T09:53:37.665Z,179.60
2022-09-12T09:56:27.797Z,166.48
2022-09-12T09:58:54.879Z,165.95
2022-09-12T10:01:22.017Z,166.82
2022-09-12T10:03:54.167Z,171.13
2022-09-12T10:06:20.851Z,171.80
2022-09-12T10:08:48.777Z,175.18
2022-09-12T10:11:15.355Z,180.48
2022-09-12T10:13:42.173Z,173.82
2022-09-12T10:16:20.328Z,176.60
2022-09-12T10:18:47.089Z,170.82
2022-09-12T10:21:25.514Z,172.70
2022-09-12T10:24:06.685Z,168.05
2022-09-12T10:26:39.924Z,169.90
2022-09-12T10:29:23.062Z,177.98
2022-09-12T10:31:54.914Z,169.82
2022-09-12T10:34:46.232Z,169.45
2022-09-12T10:37:39.666Z,172.35
2022-09-12T10:40:20.522Z,168.45
2022-09-12T10:42:59.037Z,169.63
2022-09-12T10:45:37.460Z,166.82
2022-09-12T10:48:22.851Z,168.73
2022-09-12T10:50:49.591Z,175.93
2022-09-12T10:53:22.402Z,175.18
2022-09-12T10:56:14.388Z,172.15
2022-09-12T10:59:20.125Z,168.02
2022-09-12T11:02:01.689Z,171.87
2022-09-12T11:04:52.711Z,175.77
2022-09-12T11:07:28.355Z,177.60
2022-09-12T11:09:58.011Z,172.68
2022-09-12T11:12:27.567Z,173.82
2022-09-12T11:15:25.977Z,174.63
2022-09-12T11:18:34.919Z,169.18
2022-09-12T11:21:30.024Z,174.95
2022-09-12T11:24:02.855Z,170.85
2022-09-12T11:27:00.898Z,169.73
2022-09-12T11:29:53.829Z,171.60
2022-09-12T11:33:00.191Z,168.80
2022-09-12T11:35:44.932Z,168.30
2022-09-12T11:38:33.297Z,167.75
2022-09-12T11:41:07.445Z,172.88
2022-09-12T11:43:55.861Z,173.45
2022-09-12T11:46:39.740Z,166.98
2022-09-12T11:49:09.215Z,168.18
2022-09-12T11:51:37.643Z,171.40
2022-09-12T11:54:30.500Z,171.57
2022-09-12T11:57:16.896Z,172.57
2022-09-12T12:00:08.098Z,173.18
2022-09-12T12:03:09.078Z,171.38
2022-09-12T12:05:52.134Z,173.98
2022-09-12T12:08:20.982Z,171.43
2022-09-12T12:11:00.424Z,168.55
2022-09-12T12:13:42.343Z,173.45
2022-09-12T12:16:21.380Z,171.95
2022-09-12T12:18:55.991Z,169.10
2022-09-12T12:21:29.285Z,176.90
2022-09-12T12:24:23.523Z,171.70
2022-09-12T12:26:53.108Z,169.27
2022-09-12T12:29:19.705Z,169.68
2022-09-12T12:31:58.669Z,169.27
2022-09-12T12:34:40.723Z,167.77
2022-09-12T12:37:22.518Z,168.35
2022-09-12T12:39:50.969Z,164.93
2022-09-12T12:42:36.028Z,168.52
2022-09-12T12:45:04.357Z,163.97
2022-09-12T12:48:10.148Z,168.85
2022-09-12T12:50:37.204Z,169.50
2022-09-12T12:53:19.151Z,163.68
2022-09-12T12:55:50.812Z,165.15
2022-09-12T12:58:40.585Z,163.27
2022-09-12T13:01:13.260Z,172.68
2022-09-12T13:04:05.399Z,170.45
2022-09-12T13:06:38.609Z,166.50
2022-09-12T13:09:16.386Z,170.95
2022-09-12T13:11:43.549Z,166.65
2022-09-12T13:14:47.185Z,173.30
2022-09-12T13:17:27.969Z,167.30
2022-09-12T13:20:27.177Z,162.65
2022-09-12T13:22:54.495Z,172.95
2022-09-12T13:25:26.413Z,166.35
2022-09-12T13:27:57.897Z,165.68
2022-09-12T13:30:24.715Z,168.27
2022-09-12T13:32:53.056Z,165.88
2022-09-12T13:35:35.067Z,167.85
2022-09-12T13:38:19.542Z,166.35
2022-09-12T13:40:56.510Z,167.57
2022-09-12T13:43:37.388Z,167.32
2022-09-12T13:46:04.079Z,166.50
2022-09-12T13:48:30.990Z,164.70
2022-09-12T13:51:00.649Z,165.27
2022-09-12T13:53:31.952Z,170.82
2022-09-12T13:56:00.114Z,165.93
2022-09-12T13:58:29.332Z,167.73
2022-09-12T14:01:15.959Z,168.23
2022-09-12T14:04:09.261Z,168.98
2022-09-12T14:06:46.663Z,171.55
2022-09-12T14:09:35.176Z,171.18
2022-09-12T14:12:03.304Z,165.07
2022-09-12T14:14:32.683Z,168.40
2022-09-12T14:17:00.213Z,166.15
2022-09-12T14:19:29.177Z,165.32
2022-09-12T14:21:57.628Z,167.70
2022-09-12T14:24:24.713Z,167.93
2022-09-12T14:26:55.393Z,163.40
2022-09-12T14:29:23.933Z,168.25
2022-09-12T14:32:02.085Z,164.75
2022-09-12T14:34:28.746Z,171.45
2022-09-12T14:36:57.206Z,165.30
2022-09-12T14:39:30.339Z,169.40
2022-09-12T14:42:18.696Z,162.80
2022-09-12T14:45:01.107Z,166.10
2022-09-12T14:47:37.135Z,166.43
2022-09-12T14:50:07.159Z,166.55
2022-09-12T14:52:36.040Z,163.70
2022-09-12T14:55:29.614Z,168.65
2022-09-12T14:58:16.536Z,166.20
2022-09-12T15:01:00.698Z,163.60
2022-09-12T15:03:49.483Z,168.80
2022-09-12T15:06:38.502Z,171.68
2022-09-12T15:09:13.446Z,164.35
2022-09-12T15:11:40.182Z,164.55
2022-09-12T15:14:16.756Z,193.20
2022-09-12T15:16:43.420Z,163.55
2022-09-12T15:19:10.313Z,168.25
2022-09-12T15:21:37.000Z,167.73
2022-09-12T15:24:03.680Z,167.88
2022-09-12T15:26:31.768Z,172.82
2022-09-12T15:28:58.392Z,168.93
2022-09-12T15:31:30.957Z,164.93
2022-09-12T15:34:00.463Z,164.63
2022-09-12T15:36:28.925Z,162.60
2022-09-12T15:38:55.652Z,166.43
2022-09-12T15:41:26.759Z,167.93
2022-09-12T15:43:53.502Z,166.60
2022-09-12T15:46:20.386Z,168.40
2022-09-12T15:48:47.240Z,165.68
2022-09-12T15:51:19.083Z,166.30
2022-09-12T15:53:46.713Z,168.52
2022-09-12T15:56:16.281Z,173.25
2022-09-12T15:58:57.641Z,172.00
2022-09-12T16:01:25.448Z,170.55
2022-09-12T16:03:52.139Z,185.93
2022-09-12T16:06:18.812Z,179.00
2022-09-12T16:08:45.652Z,171.35
2022-09-12T16:11:21.309Z,182.27
2022-09-12T16:13:48.619Z,172.30
2022-09-12T16:16:15.327Z,178.43
2022-09-12T16:18:42.245Z,175.18
2022-09-12T16:21:12.785Z,175.10
2022-09-12T16:23:47.576Z,174.77
2022-09-12T16:26:14.460Z,175.57
2022-09-12T16:28:41.420Z,179.10
2022-09-12T16:31:11.283Z,179.73
2022-09-12T16:33:39.152Z,173.85
2022-09-12T16:36:11.104Z,175.93
2022-09-12T16:38:45.998Z,176.98
2022-09-12T16:41:13.523Z,180.55
2022-09-12T16:43:41.035Z,177.15
2022-09-12T16:46:09.895Z,174.93
2022-09-12T16:48:37.175Z,182.07
2022-09-12T16:51:06.958Z,180.18
2022-09-12T16:53:36.601Z,177.85
2022-09-12T16:56:04.428Z,186.15
2022-09-12T16:58:41.066Z,177.18
2022-09-12T17:01:11.508Z,181.43
2022-09-12T17:03:38.437Z,185.40
2022-09-12T17:06:07.903Z,178.05
2022-09-12T17:08:37.348Z,184.80
2022-09-12T17:11:07.167Z,179.75
2022-09-12T17:13:53.298Z,184.93
2022-09-12T17:16:22.385Z,177.88
2022-09-12T17:18:49.532Z,180.48
2022-09-12T17:21:16.185Z,180.95
2022-09-12T17:23:42.931Z,181.18
2022-09-12T17:26:10.363Z,181.27
2022-09-12T17:28:38.413Z,183.65
2022-09-12T17:31:08.268Z,186.88
2022-09-12T17:33:35.068Z,189.95
2022-09-12T17:36:08.287Z,187.68
2022-09-12T17:38:37.344Z,177.43
2022-09-12T17:41:16.066Z,182.82
2022-09-12T17:43:43.935Z,181.70
2022-09-12T17:46:10.613Z,177.05
2022-09-12T17:48:37.488Z,182.15
2022-09-12T17:51:11.880Z,185.35
2022-09-12T17:53:39.057Z,178.55
2022-09-12T17:56:07.016Z,179.10
2022-09-12T17:58:34.152Z,182.30
2022-09-12T18:01:24.018Z,182.43
2022-09-12T18:03:55.601Z,178.02
2022-09-12T18:06:24.925Z,185.60
2022-09-12T18:08:51.832Z,179.85
2022-09-12T18:11:18.544Z,184.55
2022-09-12T18:13:45.400Z,188.35
2022-09-12T18:16:13.682Z,190.13
2022-09-12T18:18:40.567Z,182.80
2022-09-12T18:21:08.868Z,186.60
2022-09-12T18:23:35.671Z,189.43
2022-09-12T18:26:06.376Z,186.43
2022-09-12T18:28:34.552Z,194.68
2022-09-12T18:31:01.665Z,191.07
2022-09-12T18:33:28.338Z,189.55
2022-09-12T18:35:54.942Z,192.10
2022-09-12T18:38:21.876Z,192.25
2022-09-12T18:40:49.188Z,196.90
2022-09-12T18:43:16.063Z,196.35
2022-09-12T18:45:42.721Z,202.20
2022-09-12T18:48:09.438Z,195.13
2022-09-12T18:50:36.073Z,193.45
2022-09-12T18:53:02.769Z,190.73
2022-09-12T18:55:30.462Z,202.88
2022-09-12T18:57:57.099Z,196.15
2022-09-12T19:00:23.961Z,195.25
2022-09-12T19:02:50.599Z,200.20
2022-09-12T19:05:17.340Z,190.95
2022-09-12T19:07:43.998Z,189.13
2022-09-12T19:10:10.664Z,190.60
2022-09-12T19:12:37.320Z,192.80
2022-09-12T19:15:04.986Z,190.68
2022-09-12T19:17:31.740Z,197.30
2022-09-12T19:19:58.401Z,189.45
2022-09-12T19:22:25.125Z,189.13
2022-09-12T19:24:51.723Z,190.77
2022-09-12T19:27:18.367Z,190.68
2022-09-12T19:29:45.107Z,190.88
2022-09-12T19:32:11.821Z,192.73
2022-09-12T19:34:38.475Z,192.88
2022-09-12T19:37:05.182Z,198.73
2022-09-12T19:39:31.811Z,191.88
2022-09-12T19:41:58.503Z,191.32
2022-09-12T19:44:27.547Z,197.57
2022-09-12T19:46:54.336Z,194.32
2022-09-12T19:49:21.003Z,191.50
2022-09-12T19:51:47.699Z,192.77
2022-09-12T19:54:14.362Z,190.98
2022-09-12T19:56:41.034Z,199.70
2022-09-12T19:59:08.791Z,192.75
2022-09-12T20:01:37.259Z,194.52
2022-09-12T20:04:04.544Z,195.00
2022-09-12T20:06:31.240Z,189.38
2022-09-12T20:08:58.084Z,188.20
2022-09-12T20:11:25.821Z,187.70
2022-09-12T20:13:53.566Z,184.35
2022-09-12T20:16:29.193Z,188.02
2022-09-12T20:19:02.143Z,188.50
2022-09-12T20:21:31.887Z,188.75
2022-09-12T20:24:12.193Z,193.98
2022-09-12T20:26:39.834Z,189.82
2022-09-12T20:29:07.340Z,190.23
2022-09-12T20:31:34.474Z,199.85
2022-09-12T20:34:01.184Z,197.30
2022-09-12T20:36:28.625Z,188.65
2022-09-12T20:38:58.500Z,193.93
2022-09-12T20:41:26.891Z,193.70
2022-09-12T20:43:55.021Z,190.00
2022-09-12T20:46:22.941Z,191.27
2022-09-12T20:48:50.959Z,199.73
2022-09-12T20:51:18.919Z,187.27
2022-09-12T20:53:46.244Z,188.48
2022-09-12T20:56:14.478Z,190.13
2022-09-12T20:58:44.060Z,189.77
2022-09-12T21:01:13.121Z,195.98
2022-09-12T21:03:40.915Z,195.63
2022-09-12T21:06:09.152Z,189.15
2022-09-12T21:08:36.786Z,193.30
2022-09-12T21:11:04.239Z,187.38
2022-09-12T21:13:31.233Z,192.98
2022-09-12T21:16:02.053Z,187.13
2022-09-12T21:18:29.025Z,193.50
2022-09-12T21:20:56.659Z,190.90
2022-09-12T21:23:24.786Z,194.75
2022-09-12T21:25:52.692Z,191.40
2022-09-12T21:28:20.291Z,186.43
2022-09-12T21:30:51.101Z,195.25
2022-09-12T21:33:19.436Z,190.35
2022-09-12T21:35:47.441Z,190.55
2022-09-12T21:38:19.646Z,195.00
2022-09-12T21:40:47.676Z,191.20
2022-09-12T21:43:14.723Z,191.10
2022-09-12T21:45:41.349Z,186.30
2022-09-12T21:48:07.992Z,189.88
2022-09-12T21:50:34.703Z,188.50
2022-09-12T21:53:01.322Z,186.90
2022-09-12T21:55:28.058Z,189.00
2022-09-12T21:57:55.108Z,183.55
2022-09-12T22:00:22.622Z,188.98
2022-09-12T22:02:49.436Z,186.13
2022-09-12T22:05:16.784Z,182.75
2022-09-12T22:07:43.426Z,197.85
2022-09-12T22:10:10.221Z,193.55
2022-09-12T22:12:36.832Z,191.43
2022-09-12T22:15:22.851Z,188.30
2022-09-12T22:17:50.307Z,185.07
2022-09-12T22:20:17.029Z,183.30
2022-09-12T22:23:02.157Z,196.70
2022-09-12T22:25:29.187Z,185.20
2022-09-12T22:27:55.853Z,186.38
2022-09-12T22:30:23.500Z,187.15
2022-09-12T22:32:51.480Z,187.18
2022-09-12T22:35:19.129Z,190.68
2022-09-12T22:37:47.415Z,179.90
2022-09-12T22:40:15.674Z,184.57
2022-09-12T22:42:42.776Z,190.75
2022-09-12T22:45:09.817Z,187.25
2022-09-12T22:47:36.645Z,181.80
2022-09-12T22:50:03.727Z,186.48
2022-09-12T22:52:30.475Z,182.68
2022-09-12T22:54:57.271Z,182.25
2022-09-12T22:57:23.938Z,181.48
2022-09-12T22:59:50.524Z,183.85
2022-09-12T23:02:17.136Z,184.27
2022-09-12T23:04:44.222Z,183.73
2022-09-12T23:07:11.081Z,190.23
2022-09-12T23:09:37.716Z,180.40
2022-09-12T23:12:04.517Z,180.77
2022-09-12T23:14:31.287Z,180.93
2022-09-12T23:16:57.898Z,186.38
2022-09-12T23:19:24.552Z,190.52
2022-09-12T23:21:51.255Z,188.93
2022-09-12T23:24:17.942Z,188.95
2022-09-12T23:26:44.587Z,190.63
2022-09-12T23:29:11.500Z,189.65
2022-09-12T23:31:38.241Z,179.85
2022-09-12T23:34:09.315Z,182.13
2022-09-12T23:36:36.296Z,185.80
2022-09-12T23:39:03.743Z,187.55
2022-09-12T23:41:30.476Z,188.95
2022-09-12T23:43:57.122Z,177.45
2022-09-12T23:46:23.772Z,183.57
2022-09-12T23:48:53.175Z,182.63
2022-09-12T23:51:21.884Z,190.70
2022-09-12T23:53:49.076Z,185.00
2022-09-12T23:56:15.740Z,188.57
2022-09-12T23:58:42.751Z,192.93
